Time;durP1;ratioP1;P1;durP2;ratioP2;P2;SDS_P1;SDS_P2;PMS_P1;PMS_P2;Temp;Humidity;BMP_temperature;BMP_pressure;BME280_temperature;BME280_humidity;BME280_pressure;Samples;Min_cycle;Max_cycle;Signal;HPM_P1;HPM_P2
2021/05/16 00:01:17;;;;;;;10.75;3.25;;;;;;;12.89;74.37;99209.72;126973;1104;22939;-80
2021/05/16 00:03:47;;;;;;;9.65;3.90;;;;;;;12.84;74.59;99202.13;126783;1104;22735;-81
2021/05/16 00:06:16;;;;;;;12.93;4.83;;;;;;;12.78;74.82;99204.21;126747;1105;24231;-81
2021/05/16 00:08:46;;;;;;;9.90;3.80;;;;;;;12.68;74.77;99197.38;126785;1104;22898;-80
2021/05/16 00:11:16;;;;;;;10.10;3.35;;;;;;;12.64;75.12;99202.50;126880;1100;23571;-80
2021/05/16 00:13:45;;;;;;;12.90;4.60;;;;;;;12.60;75.16;99202.02;126732;1099;27127;-80
2021/05/16 00:16:13;;;;;;;11.33;3.67;;;;;;;12.54;75.66;99195.69;126810;1104;22860;-80
2021/05/16 00:18:42;;;;;;;11.60;4.07;;;;;;;12.48;75.99;99196.98;126798;1099;25820;-80
2021/05/16 00:21:10;;;;;;;8.60;2.97;;;;;;;12.44;75.92;99208.47;126741;1104;22758;-80
2021/05/16 00:23:39;;;;;;;13.40;4.10;;;;;;;12.39;76.04;99209.27;126751;1104;22970;-81
2021/05/16 00:26:08;;;;;;;11.98;4.15;;;;;;;12.36;76.18;99199.09;126795;1099;22774;-80
2021/05/16 00:28:36;;;;;;;11.15;3.95;;;;;;;12.36;76.14;99203.92;126385;1104;22765;-80
2021/05/16 00:31:04;;;;;;;12.35;4.40;;;;;;;12.34;76.43;99204.45;126414;1104;23800;-80
2021/05/16 00:33:33;;;;;;;12.83;4.97;;;;;;;12.35;76.29;99194.79;126764;1105;22776;-81
2021/05/16 00:36:01;;;;;;;12.80;4.17;;;;;;;12.39;76.65;99198.08;126762;1100;24745;-81
2021/05/16 00:38:30;;;;;;;13.00;4.27;;;;;;;12.40;76.21;99198.81;126766;1104;22758;-81
2021/05/16 00:40:58;;;;;;;10.80;4.23;;;;;;;12.43;76.51;99192.20;126791;1104;23330;-81
2021/05/16 00:43:26;;;;;;;11.90;4.10;;;;;;;12.46;76.32;99183.52;126839;1104;22768;-81
2021/05/16 00:45:55;;;;;;;13.60;4.10;;;;;;;12.49;76.32;99174.09;126740;1104;25599;-81
2021/05/16 00:48:24;;;;;;;;;;;;;;;12.52;76.21;99169.51;126398;1104;22847;-80
2021/05/16 00:50:53;;;;;;;10.80;3.75;;;;;;;12.54;76.16;99161.35;126447;1098;25980;-80
2021/05/16 00:53:23;;;;;;;17.20;4.55;;;;;;;12.58;76.23;99159.03;126484;1104;22864;-80
2021/05/16 00:55:54;;;;;;;11.23;4.15;;;;;;;12.58;76.33;99159.03;126973;1104;22737;-81
2021/05/16 00:58:22;;;;;;;12.80;4.30;;;;;;;12.60;76.17;99153.67;126799;1099;22724;-81
2021/05/16 01:00:51;;;;;;;14.27;5.23;;;;;;;12.61;76.24;99150.34;126967;1104;22852;-82
2021/05/16 01:03:20;;;;;;;12.65;5.00;;;;;;;12.61;76.53;99150.34;126859;1100;27125;-82
2021/05/16 01:05:50;;;;;;;14.13;4.97;;;;;;;12.62;76.40;99149.05;126865;1104;22837;-82
2021/05/16 01:08:18;;;;;;;12.40;4.67;;;;;;;12.63;76.42;99163.82;126862;1099;26713;-82
2021/05/16 01:10:49;;;;;;;11.60;4.07;;;;;;;12.62;76.33;99156.72;126942;1089;100906;-59
2021/05/16 01:13:20;;;;;;;11.97;4.80;;;;;;;12.62;76.45;99162.31;125662;1104;22819;-60
2021/05/16 01:15:48;;;;;;;;;;;;;;;12.64;76.29;99148.55;125600;1105;22737;-58
2021/05/16 01:18:17;;;;;;;12.30;4.20;;;;;;;12.64;76.75;99156.95;125606;1104;21465;-58
2021/05/16 01:20:49;;;;;;;11.20;3.73;;;;;;;12.64;76.36;99159.76;125713;1104;23086;-59
2021/05/16 01:23:21;;;;;;;11.15;3.80;;;;;;;12.64;76.34;99148.55;125762;1104;22802;-59
2021/05/16 01:25:50;;;;;;;11.97;4.13;;;;;;;12.65;76.54;99145.23;125681;1104;22816;-58
2021/05/16 01:28:21;;;;;;;10.47;4.03;;;;;;;12.66;76.25;99143.20;125774;1099;27639;-58
2021/05/16 01:30:51;;;;;;;14.63;4.63;;;;;;;12.64;76.53;99143.70;125636;1104;22742;-57
2021/05/16 01:33:20;;;;;;;;;;;;;;;12.64;77.04;99142.95;125643;1104;22744;-59
2021/05/16 01:35:49;;;;;;;11.25;4.35;;;;;;;12.61;76.77;99150.34;125495;1100;24499;-59
2021/05/16 01:38:17;;;;;;;12.35;5.10;;;;;;;12.60;76.74;99151.61;125677;1104;22803;-58
2021/05/16 01:40:46;;;;;;;11.80;4.60;;;;;;;12.60;76.42;99137.61;125582;1100;25865;-57
2021/05/16 01:43:16;;;;;;;13.13;4.83;;;;;;;12.60;76.89;99139.67;125600;1099;22771;-58
2021/05/16 01:45:45;;;;;;;12.10;4.87;;;;;;;12.59;77.19;99135.34;125575;1104;22813;-57
2021/05/16 01:48:14;;;;;;;14.70;5.08;;;;;;;12.55;77.20;99141.23;125555;1099;24466;-56
2021/05/16 01:50:43;;;;;;;11.77;4.70;;;;;;;12.52;77.64;99142.25;125413;1104;23358;-57
2021/05/16 01:53:11;;;;;;;10.80;4.50;;;;;;;12.50;77.35;99142.01;125584;1100;23057;-53
2021/05/16 01:55:40;;;;;;;13.60;4.77;;;;;;;12.50;77.38;99133.61;125474;1104;24441;-57
2021/05/16 01:58:11;;;;;;;12.75;4.65;;;;;;;12.50;77.66;99130.05;125486;1104;22822;-54
2021/05/16 02:00:44;;;;;;;16.05;6.30;;;;;;;12.46;77.78;99135.93;125535;1104;22752;-58
2021/05/16 02:03:13;;;;;;;15.83;6.10;;;;;;;12.40;77.63;99131.64;125574;1104;24866;-56
2021/05/16 02:05:42;;;;;;;16.33;5.67;;;;;;;12.39;78.01;99128.11;125513;1104;22961;-58
2021/05/16 02:08:10;;;;;;;13.35;5.55;;;;;;;12.38;77.76;99128.60;125490;1104;24398;-56
2021/05/16 02:10:39;;;;;;;14.00;4.55;;;;;;;12.38;77.85;99125.80;125634;1104;22790;-56
2021/05/16 02:13:08;;;;;;;15.25;5.05;;;;;;;12.35;77.97;99124.83;125534;1098;25932;-59
2021/05/16 02:15:38;;;;;;;13.70;5.38;;;;;;;12.35;77.71;99118.45;125610;1105;22738;-57
2021/05/16 02:18:08;;;;;;;14.80;4.47;;;;;;;12.34;78.01;99126.09;125657;1104;22737;-58
2021/05/16 02:20:37;;;;;;;13.03;4.30;;;;;;;12.33;77.86;99118.22;125506;1104;23449;-58
2021/05/16 02:23:05;;;;;;;11.10;4.20;;;;;;;12.32;78.09;99119.48;125516;1104;22848;-61
2021/05/16 02:25:35;;;;;;;12.43;4.27;;;;;;;12.32;78.09;99122.28;125500;1099;23496;-58
2021/05/16 02:28:05;;;;;;;10.87;3.70;;;;;;;12.30;77.91;99113.64;125590;1104;22909;-59
2021/05/16 02:30:36;;;;;;;11.20;3.95;;;;;;;12.29;77.71;99112.14;125547;1104;23657;-59
2021/05/16 02:33:06;;;;;;;10.90;3.40;;;;;;;12.30;77.68;99106.02;125644;1104;22745;-59
2021/05/16 02:35:35;;;;;;;13.08;3.25;;;;;;;12.29;78.10;99090.48;125615;1099;25928;-57
2021/05/16 02:38:04;;;;;;;9.30;3.00;;;;;;;12.27;77.88;99097.91;125493;1100;22769;-61
2021/05/16 02:40:35;;;;;;;8.20;2.87;;;;;;;12.24;78.36;99104.52;125509;1104;22809;-58
2021/05/16 02:43:04;;;;;;;8.95;2.75;;;;;;;12.21;77.79;99109.11;125518;1104;22758;-58
2021/05/16 02:45:33;;;;;;;8.60;2.40;;;;;;;12.21;78.08;99111.17;125770;1105;22835;-58
2021/05/16 02:48:01;;;;;;;10.07;2.13;;;;;;;12.18;78.01;99115.75;125510;1104;22810;-59
2021/05/16 02:50:30;;;;;;;7.95;2.40;;;;;;;12.14;78.20;99110.44;125468;1104;22805;-59
2021/05/16 02:52:59;;;;;;;8.75;2.80;;;;;;;12.15;78.01;99108.38;125508;1104;22729;-60
2021/05/16 02:55:28;;;;;;;9.80;2.30;;;;;;;12.14;78.02;99110.44;125450;1104;22971;-60
2021/05/16 02:57:57;;;;;;;9.97;3.10;;;;;;;12.13;77.95;99100.52;125618;1104;22937;-60
2021/05/16 03:00:26;;;;;;;10.75;3.10;;;;;;;12.11;77.95;99111.46;125387;1104;22737;-58
2021/05/16 03:02:55;;;;;;;8.53;2.80;;;;;;;12.06;77.92;99111.50;125639;1104;22758;-59
2021/05/16 03:05:29;;;;;;;8.95;3.10;;;;;;;12.00;77.71;99103.12;125450;1105;24437;-58
2021/05/16 03:07:59;;;;;;;10.85;3.40;;;;;;;11.99;77.71;99112.80;125550;1104;23276;-60
2021/05/16 03:10:29;;;;;;;9.75;3.53;;;;;;;11.95;77.57;99106.72;125593;1104;22729;-60
2021/05/16 03:12:57;;;;;;;;;;;;;;;11.93;77.74;99114.86;125572;1104;22722;-59
2021/05/16 03:15:26;;;;;;;8.87;2.80;;;;;;;11.91;77.99;99111.82;125399;1100;24201;-58
2021/05/16 03:17:57;;;;;;;8.67;3.03;;;;;;;11.90;77.54;99117.91;125392;1104;22835;-58
2021/05/16 03:20:26;;;;;;;9.90;3.23;;;;;;;11.87;77.56;99114.13;125467;1104;22823;-58
2021/05/16 03:22:54;;;;;;;10.75;3.15;;;;;;;11.82;77.66;99120.49;125586;1099;22766;-59
2021/05/16 03:25:23;;;;;;;10.15;3.55;;;;;;;11.81;77.64;99107.03;125557;1100;26203;-59
2021/05/16 03:27:53;;;;;;;9.13;3.00;;;;;;;11.78;77.72;99108.81;125515;1104;22740;-58
2021/05/16 03:30:24;;;;;;;9.33;3.43;;;;;;;11.76;77.41;99111.37;125494;1104;22971;-59
2021/05/16 03:32:52;;;;;;;10.60;3.10;;;;;;;11.76;77.35;99116.19;125824;1104;22748;-58
2021/05/16 03:35:21;;;;;;;12.65;2.65;;;;;;;11.76;77.46;99114.16;125648;1099;24549;-59
2021/05/16 03:37:50;;;;;;;9.57;2.70;;;;;;;11.76;77.64;99110.59;125500;1104;23459;-61
2021/05/16 03:40:19;;;;;;;8.17;3.00;;;;;;;11.71;77.48;99112.14;125491;1104;22878;-59
2021/05/16 03:42:48;;;;;;;11.05;3.05;;;;;;;11.69;77.42;99108.36;125621;1104;22746;-59
2021/05/16 03:45:17;;;;;;;7.57;2.63;;;;;;;11.66;77.45;99103.75;125537;1104;22842;-59
2021/05/16 03:47:45;;;;;;;9.73;2.40;;;;;;;11.64;77.80;99112.66;125732;1099;26673;-59
2021/05/16 03:50:15;;;;;;;10.30;2.60;;;;;;;11.62;77.42;99111.64;125571;1098;25918;-59
2021/05/16 03:52:43;;;;;;;7.90;2.43;;;;;;;11.60;77.74;99117.75;125594;1104;22820;-58
2021/05/16 03:55:13;;;;;;;6.20;2.20;;;;;;;11.60;78.04;99116.98;125576;1104;24289;-60
2021/05/16 03:57:43;;;;;;;9.88;3.05;;;;;;;11.58;78.11;99120.30;125832;1104;23468;-62
2021/05/16 04:00:15;;;;;;;7.40;1.90;;;;;;;11.56;78.06;99114.47;125434;1104;22803;-59
2021/05/16 04:02:45;;;;;;;8.30;1.80;;;;;;;11.53;78.34;99121.07;125674;1099;25902;-59
2021/05/16 04:05:15;;;;;;;8.87;1.70;;;;;;;11.47;78.25;99123.12;125607;1099;22832;-59
2021/05/16 04:07:45;;;;;;;8.15;2.20;;;;;;;11.47;78.66;99116.77;125736;1104;22749;-59
2021/05/16 04:10:14;;;;;;;5.40;1.63;;;;;;;11.45;78.79;99120.08;125509;1104;22799;-59
2021/05/16 04:12:43;;;;;;;7.90;1.90;;;;;;;11.44;78.62;99118.57;125497;1098;25864;-59
2021/05/16 04:15:13;;;;;;;11.27;2.47;;;;;;;11.47;78.63;99117.53;125625;1104;24173;-61
2021/05/16 04:17:42;;;;;;;;;;;;;;;11.49;78.60;99103.03;125525;1104;22878;-59
2021/05/16 04:20:13;;;;;;;11.13;1.90;;;;;;;11.52;78.70;99107.61;125738;1104;21458;-60
2021/05/16 04:22:43;;;;;;;8.17;2.23;;;;;;;11.54;78.81;99113.45;125946;1100;26219;-60
2021/05/16 04:25:14;;;;;;;5.38;1.58;;;;;;;11.58;78.92;99111.92;125870;1104;22971;-61
2021/05/16 04:27:43;;;;;;;7.50;1.70;;;;;;;11.61;78.87;99115.73;125718;1104;24706;-59
2021/05/16 04:30:14;;;;;;;7.70;2.13;;;;;;;11.64;79.11;99118.25;125627;1098;27626;-58
2021/05/16 04:32:42;;;;;;;10.17;2.10;;;;;;;11.65;79.13;99111.37;125537;1099;25480;-59
2021/05/16 04:35:13;;;;;;;6.77;1.80;;;;;;;11.71;79.52;99120.52;125411;1104;22758;-57
2021/05/16 04:37:42;;;;;;;7.93;2.50;;;;;;;11.78;79.69;99122.80;125588;1104;22794;-63
2021/05/16 04:40:12;;;;;;;6.30;2.10;;;;;;;11.83;79.32;99126.86;125474;1104;22845;-61
2021/05/16 04:42:41;;;;;;;8.23;2.17;;;;;;;11.89;79.11;99119.97;125473;1104;22822;-62
2021/05/16 04:45:12;;;;;;;8.25;2.20;;;;;;;11.93;79.67;99114.09;125497;1104;22763;-61
2021/05/16 04:47:41;;;;;;;6.15;1.80;;;;;;;11.95;78.90;99120.70;125250;1104;22765;-60
2021/05/16 04:50:15;;;;;;;6.00;1.60;;;;;;;12.00;79.54;99113.56;125498;1100;22909;-61
2021/05/16 04:52:45;;;;;;;4.83;1.53;;;;;;;12.05;79.41;99116.33;125504;1104;22774;-60
2021/05/16 04:55:15;;;;;;;6.20;1.28;;;;;;;12.11;79.21;99113.48;125528;1099;22761;-60
2021/05/16 04:57:45;;;;;;;5.43;1.28;;;;;;;12.17;79.64;99109.39;125449;1104;22730;-61
2021/05/16 05:00:17;;;;;;;4.58;1.20;;;;;;;12.23;79.58;99109.34;125607;1099;22760;-61
2021/05/16 05:02:47;;;;;;;6.20;1.30;;;;;;;12.27;79.17;99121.03;125504;1104;22815;-60
2021/05/16 05:05:16;;;;;;;3.73;1.10;;;;;;;12.31;79.55;99121.52;125518;1100;22812;-61
2021/05/16 05:07:44;;;;;;;5.37;1.50;;;;;;;12.34;79.37;99116.92;125642;1104;22765;-60
2021/05/16 05:10:15;;;;;;;4.80;1.75;;;;;;;12.39;79.79;99116.91;125374;1104;23504;-60
2021/05/16 05:12:44;;;;;;;8.35;2.60;;;;;;;12.44;79.50;99116.09;125685;1104;22822;-61
2021/05/16 05:15:13;;;;;;;7.27;2.50;;;;;;;12.48;79.55;99113.78;125581;1104;22829;-60
2021/05/16 05:17:42;;;;;;;7.33;2.67;;;;;;;12.53;79.41;99110.19;125672;1100;22740;-60
2021/05/16 05:20:13;;;;;;;7.85;2.90;;;;;;;12.58;79.61;99114.98;125475;1104;22753;-60
2021/05/16 05:22:41;;;;;;;7.30;2.20;;;;;;;12.61;79.21;99121.58;125470;1104;22765;-60
2021/05/16 05:25:14;;;;;;;9.10;2.10;;;;;;;12.62;79.10;99129.45;125394;1104;22726;-61
2021/05/16 05:27:43;;;;;;;5.30;1.50;;;;;;;12.64;79.23;99129.69;125954;1099;27202;-60
2021/05/16 05:30:13;;;;;;;3.58;1.25;;;;;;;12.63;79.14;99135.82;125848;1104;22771;-61
2021/05/16 05:32:42;;;;;;;3.73;1.20;;;;;;;12.67;79.33;99130.70;125555;1099;22763;-60
2021/05/16 05:35:12;;;;;;;4.63;1.10;;;;;;;12.74;79.46;99135.75;125393;1100;23489;-60
2021/05/16 05:37:40;;;;;;;2.90;0.90;;;;;;;12.75;79.45;99142.86;125565;1099;22737;-63
2021/05/16 05:40:13;;;;;;;2.80;0.80;;;;;;;12.80;79.17;99142.07;125446;1104;22758;-61
2021/05/16 05:42:42;;;;;;;2.47;0.60;;;;;;;12.80;78.57;99145.64;125572;1104;22747;-61
2021/05/16 05:45:13;;;;;;;4.13;0.80;;;;;;;12.83;78.77;99147.38;125435;1099;27135;-60
2021/05/16 05:47:42;;;;;;;2.60;0.65;;;;;;;12.84;78.86;99148.15;125537;1098;25957;-61
2021/05/16 05:50:12;;;;;;;2.27;0.57;;;;;;;12.86;78.37;99146.35;125417;1100;22745;-60
2021/05/16 05:52:41;;;;;;;1.70;0.67;;;;;;;12.90;78.62;99146.06;125718;1104;22803;-60
2021/05/16 05:55:12;;;;;;;4.70;0.60;;;;;;;12.93;78.67;99150.63;125166;1104;22838;-60
2021/05/16 05:57:40;;;;;;;;;;;;;;;12.97;78.51;99148.31;125536;1104;22738;-61
2021/05/16 06:00:08;;;;;;;3.20;0.60;;;;;;;;;;125515;1100;24710;-61
2021/05/16 06:02:39;;;;;;;4.17;0.70;;;;;;;12.95;78.55;99151.61;125697;1104;24152;-62
2021/05/16 06:05:09;;;;;;;;;;;;;;;13.01;78.85;99155.13;125166;1104;22879;-59
2021/05/16 06:07:39;;;;;;;2.35;0.58;;;;;;;13.08;78.51;99162.23;125469;1104;21603;-60
2021/05/16 06:10:10;;;;;;;1.63;0.50;;;;;;;13.07;77.82;99163.53;125627;1104;22740;-62
2021/05/16 06:12:39;;;;;;;1.85;0.50;;;;;;;13.07;78.21;99163.53;126138;1099;23043;-61
2021/05/16 06:15:13;;;;;;;2.78;0.58;;;;;;;13.09;77.91;99174.21;125445;1104;22822;-60
2021/05/16 06:17:43;;;;;;;1.63;0.60;;;;;;;13.12;77.84;99173.18;125612;1104;22823;-63
2021/05/16 06:20:14;;;;;;;2.03;0.63;;;;;;;13.15;78.12;99172.89;125509;1100;23263;-61
2021/05/16 06:22:41;;;;;;;2.60;0.60;;;;;;;;;;125544;1099;23486;-60
2021/05/16 06:25:12;;;;;;;1.80;0.50;;;;;;;13.23;77.72;99175.88;125367;1105;22918;-60
2021/05/16 06:27:40;;;;;;;2.00;0.60;;;;;;;13.27;77.43;99179.14;125450;1104;22737;-60
2021/05/16 06:30:12;;;;;;;3.25;0.60;;;;;;;13.32;77.77;99172.74;125394;1104;22793;-60
2021/05/16 06:32:42;;;;;;;3.97;0.80;;;;;;;13.39;77.53;99178.52;125449;1105;22848;-61
2021/05/16 06:35:12;;;;;;;4.38;0.80;;;;;;;13.41;77.46;99180.80;125496;1099;22707;-61
2021/05/16 06:37:41;;;;;;;2.43;0.70;;;;;;;13.45;77.32;99175.69;125570;1104;22942;-60
2021/05/16 06:40:13;;;;;;;1.90;0.60;;;;;;;13.47;76.47;99176.66;125482;1104;22892;-61
2021/05/16 06:42:44;;;;;;;2.10;0.60;;;;;;;13.52;77.12;99177.89;125550;1104;22724;-61
2021/05/16 06:45:14;;;;;;;2.60;0.75;;;;;;;13.56;76.45;99179.13;125499;1104;22765;-60
2021/05/16 06:47:43;;;;;;;3.45;0.60;;;;;;;13.60;76.96;99179.59;125712;1099;26241;-61
2021/05/16 06:50:14;;;;;;;2.65;0.70;;;;;;;13.66;76.92;99188.71;125628;1104;24447;-61
2021/05/16 06:52:43;;;;;;;2.10;0.60;;;;;;;13.72;76.23;99186.61;125663;1099;27285;-61
2021/05/16 06:55:13;;;;;;;2.60;0.60;;;;;;;13.74;76.02;99189.64;125467;1104;23364;-60
2021/05/16 06:57:42;;;;;;;1.43;0.40;;;;;;;13.74;75.00;99200.86;125889;1104;22819;-62
2021/05/16 07:00:13;;;;;;;2.15;0.60;;;;;;;13.75;75.42;99204.44;125805;1104;24568;-60
2021/05/16 07:02:42;;;;;;;2.95;0.70;;;;;;;13.74;74.66;99194.48;125453;1099;22909;-62
2021/05/16 07:05:12;;;;;;;2.90;0.60;;;;;;;13.74;74.58;99200.86;125452;1100;26200;-60
2021/05/16 07:07:41;;;;;;;5.33;1.07;;;;;;;13.72;74.97;99200.63;125579;1104;22770;-62
2021/05/16 07:10:12;;;;;;;3.00;0.60;;;;;;;13.72;74.33;99199.86;125677;1104;22789;-61
2021/05/16 07:12:43;;;;;;;6.13;0.77;;;;;;;13.69;74.30;99196.09;125764;1104;22771;-62
2021/05/16 07:15:13;;;;;;;2.77;0.70;;;;;;;13.70;74.68;99189.18;125519;1105;22819;-59
2021/05/16 07:17:42;;;;;;;2.10;0.60;;;;;;;13.73;74.79;99190.95;125802;1104;25551;-60
2021/05/16 07:20:13;;;;;;;2.25;0.50;;;;;;;13.73;74.23;99188.14;125463;1099;26219;-61
2021/05/16 07:22:44;;;;;;;3.40;0.60;;;;;;;13.73;74.51;99196.55;125467;1100;24801;-60
2021/05/16 07:25:17;;;;;;;1.53;0.40;;;;;;;13.72;74.63;99200.63;125766;1099;22817;-60
2021/05/16 07:27:46;;;;;;;2.35;0.60;;;;;;;13.72;74.47;99195.02;125888;1099;26213;-60
2021/05/16 07:30:17;;;;;;;3.73;0.70;;;;;;;13.72;74.12;99203.44;125448;1105;22881;-63
2021/05/16 07:32:46;;;;;;;1.75;0.40;;;;;;;13.72;73.87;99194.25;125811;1100;22831;-63
2021/05/16 07:35:15;;;;;;;1.75;0.30;;;;;;;13.69;73.78;99201.70;125454;1100;22799;-60
2021/05/16 07:37:44;;;;;;;1.70;0.50;;;;;;;13.64;73.27;99198.92;125521;1104;22768;-60
2021/05/16 07:40:15;;;;;;;3.60;0.50;;;;;;;13.61;73.66;99203.53;125463;1098;27119;-61
2021/05/16 07:42:44;;;;;;;2.80;0.40;;;;;;;13.59;73.75;99202.56;125606;1099;27204;-62
2021/05/16 07:45:16;;;;;;;2.75;0.40;;;;;;;13.55;73.51;99207.70;125498;1099;27351;-61
2021/05/16 07:47:46;;;;;;;3.43;0.50;;;;;;;13.54;73.16;99206.94;125796;1104;22837;-63
2021/05/16 07:50:15;;;;;;;2.95;0.40;;;;;;;13.56;73.33;99212.78;125595;1100;22754;-63
2021/05/16 07:52:44;;;;;;;2.13;0.50;;;;;;;13.57;73.46;99211.48;125720;1104;22833;-62
2021/05/16 07:55:13;;;;;;;1.95;0.40;;;;;;;13.58;73.51;99206.64;125475;1100;22823;-61
2021/05/16 07:57:43;;;;;;;3.50;0.45;;;;;;;13.59;73.42;99202.56;125578;1104;22822;-62
2021/05/16 08:00:13;;;;;;;2.43;0.50;;;;;;;13.59;73.54;99210.98;125790;1104;23635;-62
2021/05/16 08:02:44;;;;;;;2.17;0.60;;;;;;;13.57;73.21;99208.67;125778;1104;22908;-61
2021/05/16 08:05:14;;;;;;;;;;;;;;;13.56;72.92;99209.20;125756;1104;22810;-60
2021/05/16 08:07:43;;;;;;;3.15;0.40;;;;;;;13.54;72.61;99218.16;125790;1104;21680;-60
2021/05/16 08:10:13;;;;;;;2.10;0.50;;;;;;;13.53;72.47;99221.48;125454;1104;22758;-61
2021/05/16 08:12:45;;;;;;;2.10;0.50;;;;;;;13.51;73.03;99219.19;125679;1104;24595;-63
2021/05/16 08:15:15;;;;;;;2.10;0.60;;;;;;;13.52;72.83;99219.95;125540;1104;22819;-61
2021/05/16 08:17:44;;;;;;;2.98;0.70;;;;;;;13.54;73.10;99226.56;125730;1104;29635;-61
2021/05/16 08:20:14;;;;;;;3.17;0.60;;;;;;;13.56;73.12;99228.84;125524;1104;22910;-60
2021/05/16 08:22:43;;;;;;;4.40;0.50;;;;;;;13.58;72.79;99229.84;125655;1104;22768;-61
2021/05/16 08:25:14;;;;;;;3.07;0.50;;;;;;;13.59;72.91;99233.41;125507;1104;22755;-60
2021/05/16 08:27:43;;;;;;;3.10;0.50;;;;;;;13.62;73.13;99233.11;126141;1100;22737;-62
2021/05/16 08:30:14;;;;;;;2.03;0.53;;;;;;;13.66;72.37;99242.00;125669;1104;22826;-63
2021/05/16 08:32:44;;;;;;;1.90;0.50;;;;;;;13.70;72.48;99236.86;125594;1097;22751;-62
2021/05/16 08:35:15;;;;;;;0.95;0.30;;;;;;;13.78;72.69;99242.64;129673;1104;22567;-62
2021/05/16 08:37:45;;;;;;;;;;;;;;;13.80;71.93;99245.71;126704;1104;22740;-63
2021/05/16 08:40:15;;;;;;;;;;;;;;;13.85;72.05;99247.68;125655;1104;24332;-66
2021/05/16 08:42:44;;;;;;;3.75;0.60;;;;;;;13.89;71.87;99250.19;129598;1104;21861;-65
2021/05/16 08:45:16;;;;;;;2.53;0.40;;;;;;;13.93;72.09;99253.46;129654;1104;22589;-64
2021/05/16 08:47:47;;;;;;;3.43;0.57;;;;;;;14.02;72.21;99250.31;126194;1098;26158;-64
2021/05/16 08:50:17;;;;;;;2.88;0.55;;;;;;;14.10;72.42;99246.40;129635;1104;22692;-62
2021/05/16 08:52:45;;;;;;;;;;;;;;;14.13;71.52;99250.94;129677;1104;23555;-64
2021/05/16 08:55:16;;;;;;;3.60;0.45;;;;;;;14.14;71.73;99251.70;129631;1104;21287;-64
2021/05/16 08:57:45;;;;;;;5.20;0.50;;;;;;;14.16;71.21;99249.91;129607;1104;22663;-64
2021/05/16 09:00:18;;;;;;;2.10;0.50;;;;;;;14.20;71.73;99253.17;129598;1104;22658;-65
2021/05/16 09:03:16;;;;;;;2.00;0.40;;;;;;;14.23;71.59;99242.94;129645;1104;22642;-66
2021/05/16 09:05:46;;;;;;;3.70;0.55;;;;;;;14.26;71.08;99253.09;129088;1107;22595;-64
2021/05/16 09:08:18;;;;;;;1.85;0.50;;;;;;;14.30;70.90;99245.93;129128;1108;23184;-64
2021/05/16 09:10:54;;;;;;;3.00;0.50;;;;;;;14.38;70.97;99254.54;129112;1108;22601;-62
2021/05/16 09:13:25;;;;;;;2.90;0.40;;;;;;;14.41;70.55;99259.08;129131;1108;22615;-64
2021/05/16 09:16:03;;;;;;;1.10;0.40;;;;;;;14.42;70.77;99269.04;129143;1108;22607;-63
2021/05/16 09:18:43;;;;;;;3.05;0.45;;;;;;;14.41;70.95;99259.84;129122;1108;22615;-63
2021/05/16 09:21:28;;;;;;;2.45;0.30;;;;;;;14.47;70.64;99268.20;129121;1108;22624;-64
2021/05/16 09:24:14;;;;;;;1.50;0.40;;;;;;;14.49;70.69;99268.42;129237;1107;22607;-65
2021/05/16 09:26:56;;;;;;;2.75;0.40;;;;;;;14.52;70.00;99262.50;129112;1108;22724;-64
2021/05/16 09:29:28;;;;;;;0.75;0.20;;;;;;;14.54;69.43;99259.95;129260;1108;22677;-65
2021/05/16 09:32:00;;;;;;;1.37;0.40;;;;;;;14.56;69.45;99265.03;129133;1107;23339;-65
2021/05/16 09:34:31;;;;;;;1.45;0.40;;;;;;;14.62;69.42;99270.56;129126;1108;22583;-64
2021/05/16 09:37:02;;;;;;;1.85;0.40;;;;;;;14.66;69.06;99268.22;129122;1107;22800;-65
2021/05/16 09:39:34;;;;;;;3.40;0.60;;;;;;;14.69;68.74;99275.59;129158;1105;22707;-64
2021/05/16 09:42:09;;;;;;;2.60;0.40;;;;;;;14.73;68.39;99276.05;129590;1104;23662;-65
2021/05/16 09:44:41;;;;;;;2.50;0.40;;;;;;;14.75;68.50;99277.05;129617;1104;22626;-64
2021/05/16 09:47:18;;;;;;;4.30;0.40;;;;;;;14.78;68.40;99278.78;129624;1104;24541;-64
2021/05/16 09:49:50;;;;;;;1.90;0.40;;;;;;;14.82;68.84;99279.23;129617;1104;23304;-66
2021/05/16 09:52:21;;;;;;;2.53;0.40;;;;;;;14.84;67.62;99276.66;129644;1104;22744;-65
2021/05/16 09:55:07;;;;;;;1.75;0.50;;;;;;;14.85;67.72;99269.75;129625;1104;22645;-67
2021/05/16 09:57:39;;;;;;;2.37;0.50;;;;;;;14.89;67.78;99273.02;129604;1104;22664;-64
2021/05/16 10:00:10;;;;;;;2.17;0.50;;;;;;;15.00;67.99;99275.66;129654;1104;22657;-66
2021/05/16 10:02:40;;;;;;;3.50;0.40;;;;;;;15.14;68.32;99276.50;129601;1104;23570;-64
2021/05/16 10:05:10;;;;;;;;;;;;;;;15.19;67.73;99275.64;129677;1104;22706;-64
2021/05/16 10:07:40;;;;;;;1.50;0.45;;;;;;;15.24;67.57;99278.38;129655;1104;21855;-64
2021/05/16 10:10:11;;;;;;;2.20;0.43;;;;;;;15.28;67.57;99276.02;129660;1104;22669;-63
2021/05/16 10:12:42;;;;;;;1.85;0.60;;;;;;;15.33;67.56;99280.05;129617;1104;22586;-64
2021/05/16 10:15:15;;;;;;;;;;;;;;;15.34;66.50;99287.17;129614;1104;22605;-64
2021/05/16 10:17:49;;;;;;;1.73;0.40;;;;;;;15.28;66.49;99287.27;129622;1104;21349;-65
2021/05/16 10:20:23;;;;;;;2.07;0.40;;;;;;;15.23;66.72;99285.28;129615;1104;22597;-67
2021/05/16 10:22:56;;;;;;;1.95;0.30;;;;;;;15.17;66.21;99281.80;129631;1104;22632;-67
2021/05/16 10:25:49;;;;;;;2.30;0.40;;;;;;;15.09;65.71;99282.94;129614;1104;23464;-66
2021/05/16 10:28:38;;;;;;;1.85;0.20;;;;;;;15.03;65.74;99285.08;129104;1107;22590;-66
2021/05/16 10:31:09;;;;;;;1.05;0.30;;;;;;;15.02;66.42;99284.31;129118;1107;22634;-67
2021/05/16 10:33:39;;;;;;;1.50;0.40;;;;;;;15.07;65.97;99283.48;129119;1107;22660;-67
2021/05/16 10:36:09;;;;;;;2.00;0.30;;;;;;;15.12;65.56;99287.52;126539;1107;22770;-66
2021/05/16 10:38:40;;;;;;;1.23;0.28;;;;;;;15.14;65.45;99285.70;125597;1100;26481;-64
2021/05/16 10:41:18;;;;;;;1.78;0.28;;;;;;;15.21;65.33;99293.50;125214;1100;27000;-65
2021/05/16 10:43:50;;;;;;;2.60;0.40;;;;;;;15.27;65.56;99290.59;125414;1107;22793;-65
2021/05/16 10:46:51;;;;;;;2.67;0.30;;;;;;;15.35;65.70;99291.52;125170;1107;23600;-66
2021/05/16 10:49:25;;;;;;;3.15;0.60;;;;;;;15.38;64.90;99285.57;125048;1107;22950;-64
2021/05/16 10:51:55;;;;;;;1.40;0.30;;;;;;;15.40;64.92;99273.78;125200;1108;22732;-65
2021/05/16 10:54:52;;;;;;;2.83;0.60;;;;;;;15.45;64.60;99269.39;125166;1108;22721;-64
2021/05/16 10:57:23;;;;;;;1.80;0.35;;;;;;;15.58;65.42;99272.26;126136;1107;22810;-66
2021/05/16 10:59:52;;;;;;;;;;;;;;;15.61;64.16;99271.94;125192;1102;27628;-65
2021/05/16 11:02:55;;;;;;;2.00;0.50;;;;;;;15.67;64.07;99274.64;125270;1108;21624;-65
2021/05/16 11:05:57;;;;;;;1.80;0.50;;;;;;;15.73;63.09;99264.81;125387;1100;23533;-66
2021/05/16 11:09:07;;;;;;;3.95;0.40;;;;;;;15.72;63.11;99256.92;125476;1104;25475;-66
2021/05/16 11:11:54;;;;;;;2.28;0.25;;;;;;;15.80;63.84;99240.91;125559;1105;22813;-64
2021/05/16 11:14:25;;;;;;;3.05;0.30;;;;;;;15.88;64.11;99244.60;125522;1104;22797;-64
2021/05/16 11:16:57;;;;;;;1.43;0.30;;;;;;;15.99;63.07;99238.77;125633;1100;27138;-65
2021/05/16 11:19:29;;;;;;;1.00;0.30;;;;;;;16.02;62.71;99240.49;125584;1099;22760;-65
2021/05/16 11:22:09;;;;;;;0.90;0.10;;;;;;;16.02;62.74;99226.42;125879;1104;22735;-65
2021/05/16 11:24:51;;;;;;;1.40;0.30;;;;;;;16.06;62.75;99227.62;125577;1104;22730;-64
2021/05/16 11:27:26;;;;;;;1.60;0.30;;;;;;;16.14;61.71;99227.71;125575;1104;22809;-66
2021/05/16 11:29:58;;;;;;;3.05;0.25;;;;;;;16.09;61.25;99229.36;125542;1104;22731;-65
2021/05/16 11:32:30;;;;;;;2.10;0.30;;;;;;;16.00;61.09;99221.34;125476;1100;22897;-64
2021/05/16 11:35:12;;;;;;;1.03;0.20;;;;;;;15.97;61.41;99224.48;126679;1104;22850;-65
2021/05/16 11:37:41;;;;;;;2.10;0.20;;;;;;;16.06;62.51;99221.98;126110;1099;22755;-64
2021/05/16 11:40:31;;;;;;;2.00;0.20;;;;;;;16.20;62.06;99214.31;126046;1098;27608;-65
2021/05/16 11:43:02;;;;;;;1.15;0.20;;;;;;;16.34;61.73;99220.67;128153;1100;27090;-65
2021/05/16 11:45:35;;;;;;;2.75;0.20;;;;;;;16.49;61.48;99207.56;126095;1104;23828;-63